Time;durP1;ratioP1;P1;durP2;ratioP2;P2;SDS_P1;SDS_P2;PMS_P1;PMS_P2;Temp;Humidity;BMP_temperature;BMP_pressure;BME280_temperature;BME280_humidity;BME280_pressure;Samples;Min_cycle;Max_cycle;Signal;HPM_P1;HPM_P2
2021/12/15 00:02:06;;;;;;;19.85;14.70;;;;;;;7.48;86.19;101589.47;10258827;28;20046;-61
2021/12/15 00:07:09;;;;;;;19.15;14.93;;;;;;;7.47;86.70;101586.91;10268167;28;20061;-62
2021/12/15 00:12:13;;;;;;;19.25;15.13;;;;;;;7.51;86.37;101578.75;10240074;28;20073;-62
2021/12/15 00:17:15;;;;;;;18.77;15.23;;;;;;;7.58;86.49;101588.13;10268507;28;20061;-62
2021/12/15 00:22:17;;;;;;;19.13;16.08;;;;;;;7.64;85.85;101589.63;10249089;28;20065;-62
2021/12/15 00:27:18;;;;;;;20.48;15.25;;;;;;;7.65;85.84;101578.09;10267961;28;20129;-62
2021/12/15 00:32:20;;;;;;;19.55;14.52;;;;;;;7.65;86.06;101590.50;10267442;28;20130;-64
2021/12/15 00:37:21;;;;;;;17.85;14.95;;;;;;;7.66;86.02;101589.56;10263577;28;20047;-62
2021/12/15 00:42:23;;;;;;;20.00;15.63;;;;;;;7.63;85.75;101587.91;10267764;28;20055;-61
2021/12/15 00:47:24;;;;;;;21.35;15.40;;;;;;;7.58;86.18;101588.13;10229290;28;20421;-62
2021/12/15 00:52:25;;;;;;;15.98;13.68;;;;;;;7.65;86.53;101585.19;10250034;28;22058;-62
2021/12/15 00:57:32;;;;;;;18.35;14.55;;;;;;;7.65;85.77;101588.69;10255905;28;20043;-62
2021/12/15 01:02:33;;;;;;;16.52;14.00;;;;;;;7.59;86.46;101597.78;10267305;28;20505;-63
2021/12/15 01:07:36;;;;;;;18.00;14.90;;;;;;;7.57;86.28;101589.06;10244799;28;20047;-63
2021/12/15 01:12:52;;;;;;;20.73;15.38;;;;;;;7.57;86.77;101588.19;10274818;28;20146;-62
2021/12/15 01:23:18;;;;;;;18.58;15.05;;;;;;;7.77;86.11;101611.97;10277207;28;20046;-62
2021/12/15 01:28:21;;;;;;;19.50;16.95;;;;;;;7.76;85.91;101607.59;10272945;28;20141;-62
2021/12/15 01:33:25;;;;;;;18.00;15.90;;;;;;;7.58;86.29;101603.16;10275482;28;20049;-62
2021/12/15 01:38:31;;;;;;;17.80;14.73;;;;;;;7.70;86.14;101609.66;10275369;28;20061;-62
2021/12/15 01:46:52;;;;;;;19.15;15.75;;;;;;;7.69;86.36;101606.16;10275274;28;20047;-63
2021/12/15 01:49:15;;;;;;;21.88;15.43;;;;;;;7.62;86.87;101604.72;10261220;28;20057;-62
2021/12/15 01:54:17;;;;;;;18.95;15.50;;;;;;;7.56;86.94;101595.28;10275166;28;20050;-63
2021/12/15 01:59:22;;;;;;;20.52;15.10;;;;;;;7.52;87.21;101606.09;10253985;28;20133;-64
2021/12/15 02:04:23;;;;;;;21.95;16.85;;;;;;;7.62;87.41;101615.34;10274145;28;20130;-62
2021/12/15 02:14:41;;;;;;;18.45;15.32;;;;;;;7.70;86.99;101607.91;10279008;28;20097;-63
2021/12/15 02:19:42;;;;;;;21.75;17.55;;;;;;;7.66;87.03;101619.56;10272566;28;20042;-62
2021/12/15 02:24:48;;;;;;;20.73;16.73;;;;;;;7.67;87.39;101605.41;10289361;23;20133;-66
2021/12/15 02:29:57;;;;;;;20.85;17.08;;;;;;;7.79;86.76;101619.84;10267658;28;20473;-66
2021/12/15 02:40:20;;;;;;;26.95;19.23;;;;;;;7.80;86.05;101624.22;10268827;28;20101;-66
2021/12/15 02:45:24;;;;;;;21.50;16.95;;;;;;;7.79;86.50;101626.03;10267320;28;20059;-66
2021/12/15 02:50:28;;;;;;;20.67;17.27;;;;;;;7.81;85.98;101625.94;10268199;28;20107;-66
2021/12/15 02:55:30;;;;;;;22.80;18.38;;;;;;;7.90;85.86;101614.06;10251128;28;20389;-66
2021/12/15 03:00:36;;;;;;;21.90;18.88;;;;;;;7.93;85.93;101622.72;10253308;28;20049;-66
2021/12/15 03:06:05;;;;;;;24.65;18.92;;;;;;;7.85;85.71;101618.69;10266084;28;20213;-66
2021/12/15 03:16:23;;;;;;;21.48;16.17;;;;;;;8.05;85.32;101609.81;10266374;28;20047;-66
2021/12/15 03:21:26;;;;;;;20.63;17.42;;;;;;;7.89;85.43;101625.56;10250142;28;20051;-66
2021/12/15 03:26:35;;;;;;;21.52;17.13;;;;;;;7.91;85.46;101613.09;10266645;28;20184;-67
2021/12/15 03:42:03;;;;;;;19.10;15.55;;;;;;;7.95;84.97;101607.56;10266143;28;20054;-67
2021/12/15 03:47:16;;;;;;;19.38;15.52;;;;;;;8.01;84.90;101608.22;10265547;28;20069;-67
2021/12/15 03:52:18;;;;;;;20.08;15.93;;;;;;;8.06;84.18;101612.38;10265481;28;20051;-66
2021/12/15 03:57:21;;;;;;;19.90;16.90;;;;;;;7.97;83.86;101613.69;10264581;28;20051;-65
2021/12/15 04:02:23;;;;;;;21.02;16.65;;;;;;;7.86;84.10;101607.16;10264608;28;20050;-66
2021/12/15 04:07:25;;;;;;;18.20;15.40;;;;;;;7.66;84.96;101602.81;10264709;28;20179;-67
2021/12/15 04:12:26;;;;;;;18.02;15.35;;;;;;;7.61;85.49;101605.66;10270629;28;20126;-67
2021/12/15 04:17:30;;;;;;;17.15;15.00;;;;;;;7.71;84.74;101617.56;10251100;28;20047;-67
2021/12/15 04:22:31;;;;;;;19.08;15.43;;;;;;;7.78;84.79;101615.50;10264061;28;20421;-67
2021/12/15 04:27:33;;;;;;;18.85;15.80;;;;;;;7.64;84.74;101612.59;10264547;28;20045;-66
2021/12/15 04:32:42;;;;;;;18.83;14.95;;;;;;;7.59;85.00;101621.63;10265857;28;20474;-66
2021/12/15 04:37:47;;;;;;;16.80;13.85;;;;;;;7.62;85.25;101623.28;10262376;28;22146;-66
2021/12/15 04:42:49;;;;;;;17.13;14.73;;;;;;;7.63;85.04;101635.63;10263148;28;20138;-66
2021/12/15 04:47:51;;;;;;;17.45;14.82;;;;;;;7.64;85.23;101628.50;10264963;28;20050;-67
2021/12/15 04:52:53;;;;;;;16.17;14.15;;;;;;;7.55;85.36;101624.50;10265337;28;20126;-66
2021/12/15 04:57:55;;;;;;;17.80;15.90;;;;;;;7.47;85.69;101624.84;10263632;28;20477;-66
2021/12/15 05:02:58;;;;;;;16.65;14.15;;;;;;;7.57;85.25;101630.59;10269293;28;20122;-67
2021/12/15 05:08:01;;;;;;;18.02;15.52;;;;;;;7.65;84.96;101639.03;10256457;28;20051;-66
2021/12/15 05:13:04;;;;;;;18.58;15.23;;;;;;;7.67;84.56;101636.31;10268953;28;20457;-67
2021/12/15 05:18:07;;;;;;;16.88;14.30;;;;;;;7.64;84.97;101641.75;10246231;28;20054;-66
2021/12/15 05:23:09;;;;;;;19.73;15.40;;;;;;;7.62;84.91;101639.19;10267631;28;20129;-66
2021/12/15 05:28:11;;;;;;;19.27;15.43;;;;;;;7.64;84.72;101647.06;10274805;28;20119;-67
2021/12/15 05:33:12;;;;;;;18.27;15.93;;;;;;;7.70;84.46;101647.66;10265446;28;20142;-66
2021/12/15 05:38:14;;;;;;;19.13;15.65;;;;;;;7.62;84.90;101655.09;10262089;28;20142;-66
2021/12/15 05:43:15;;;;;;;18.27;16.13;;;;;;;7.76;84.43;101657.97;10263386;28;20053;-66
2021/12/15 05:48:18;;;;;;;18.75;15.65;;;;;;;7.71;84.31;101670.56;10262600;28;20038;-66
2021/12/15 05:53:22;;;;;;;17.13;14.75;;;;;;;7.78;84.21;101669.34;10264434;28;20074;-67
2021/12/15 05:58:23;;;;;;;19.10;15.93;;;;;;;7.76;84.00;101673.88;10240924;28;20063;-66
2021/12/15 06:03:25;;;;;;;17.98;16.00;;;;;;;7.73;83.80;101689.94;10224968;28;20100;-67
2021/12/15 06:08:26;;;;;;;19.25;16.83;;;;;;;7.70;84.16;101683.88;10225618;28;20894;-67
2021/12/15 06:13:29;;;;;;;18.27;15.32;;;;;;;7.67;84.21;101682.25;10223831;28;20220;-66
2021/12/15 06:18:31;;;;;;;18.08;15.75;;;;;;;7.77;84.23;101696.78;10223705;28;20051;-68
2021/12/15 06:23:33;;;;;;;21.05;16.52;;;;;;;7.70;83.85;101689.19;10221409;28;20097;-67
2021/12/15 06:28:37;;;;;;;19.17;17.05;;;;;;;7.64;84.72;101690.34;10222094;28;20159;-67
2021/12/15 06:33:39;;;;;;;19.00;16.65;;;;;;;7.60;84.64;101702.00;10228785;28;20052;-66
2021/12/15 06:38:45;;;;;;;19.67;16.92;;;;;;;7.70;84.32;101715.69;10226741;28;20053;-66
2021/12/15 06:43:54;;;;;;;18.98;16.73;;;;;;;7.82;83.93;101714.28;10223463;28;20055;-66
2021/12/15 06:59:36;;;;;;;18.85;15.90;;;;;;;7.89;84.09;101728.97;10220260;28;20118;-65
2021/12/15 07:04:37;;;;;;;18.58;15.80;;;;;;;7.78;83.87;101740.94;10219687;28;20043;-65
2021/12/15 07:09:39;;;;;;;18.38;16.13;;;;;;;7.75;83.85;101758.78;10223539;28;20047;-65
2021/12/15 07:14:40;;;;;;;18.75;15.63;;;;;;;7.73;84.39;101748.25;10222507;28;20490;-64
2021/12/15 07:20:04;;;;;;;18.05;16.08;;;;;;;7.76;84.09;101760.47;10219959;28;20043;-64
2021/12/15 07:25:06;;;;;;;20.48;15.77;;;;;;;7.69;84.24;101767.84;10219134;28;24821;-66
2021/12/15 07:30:10;;;;;;;21.13;17.20;;;;;;;7.60;84.78;101771.75;10222657;28;20364;-64
2021/12/15 07:35:15;;;;;;;21.50;16.27;;;;;;;7.64;84.77;101774.28;10221945;28;20066;-65
2021/12/15 07:40:21;;;;;;;19.73;16.55;;;;;;;7.69;84.77;101783.75;10220207;28;20529;-64
2021/12/15 07:45:25;;;;;;;22.75;19.15;;;;;;;7.56;84.94;101782.56;10218596;28;20553;-63
2021/12/15 07:50:28;;;;;;;21.10;17.10;;;;;;;7.64;84.60;101788.41;10217973;28;20079;-64
2021/12/15 07:55:31;;;;;;;20.92;17.85;;;;;;;7.60;84.96;101794.75;10219854;28;20214;-64
2021/12/15 08:00:35;;;;;;;21.58;17.50;;;;;;;7.79;84.50;101795.69;10221707;28;20066;-63
2021/12/15 08:05:38;;;;;;;25.13;19.25;;;;;;;7.74;84.02;101792.34;10222425;28;20054;-64
2021/12/15 08:10:41;;;;;;;23.23;18.70;;;;;;;7.71;83.82;101775.75;10223033;28;20047;-64
2021/12/15 08:15:44;;;;;;;22.10;18.17;;;;;;;7.79;83.81;101790.38;10201235;28;20050;-64
2021/12/15 08:20:46;;;;;;;24.40;19.88;;;;;;;7.76;84.22;101782.56;10218488;28;20138;-64
2021/12/15 08:25:48;;;;;;;24.35;18.95;;;;;;;7.59;84.21;101795.69;10201919;28;20054;-65
2021/12/15 08:30:50;;;;;;;23.08;18.25;;;;;;;7.61;84.49;101793.81;10219644;28;20062;-63
2021/12/15 08:35:59;;;;;;;23.90;20.05;;;;;;;7.73;83.70;101801.25;10219061;28;20049;-64
2021/12/15 08:41:04;;;;;;;22.40;17.95;;;;;;;7.73;83.37;101795.94;10218101;28;20051;-63
2021/12/15 08:46:11;;;;;;;24.20;18.25;;;;;;;7.79;83.39;101806.28;10219844;28;20055;-64
2021/12/15 08:51:15;;;;;;;24.70;17.85;;;;;;;7.79;84.05;101806.28;10219858;28;20055;-64
2021/12/15 08:56:17;;;;;;;26.27;21.55;;;;;;;7.74;84.11;101816.22;10219191;28;20047;-65
2021/12/15 09:01:19;;;;;;;23.33;18.48;;;;;;;7.83;83.71;101807.00;10200652;28;20296;-64
2021/12/15 09:06:21;;;;;;;23.83;18.85;;;;;;;7.83;83.82;101812.28;10220831;28;20051;-64
2021/12/15 09:11:26;;;;;;;25.50;18.05;;;;;;;7.77;84.24;101818.72;10218613;28;20543;-64
2021/12/15 09:16:30;;;;;;;25.15;19.30;;;;;;;7.73;83.73;101817.16;10211167;28;20410;-64
2021/12/15 09:21:34;;;;;;;26.40;19.77;;;;;;;7.85;83.76;101817.53;10217300;28;20158;-64
2021/12/15 09:26:36;;;;;;;25.52;19.55;;;;;;;7.95;83.44;101827.66;10221373;28;20047;-64
2021/12/15 09:31:39;;;;;;;25.45;19.20;;;;;;;8.03;82.30;101822.03;10224698;28;20061;-64
2021/12/15 09:36:40;;;;;;;25.60;18.73;;;;;;;8.04;82.59;101830.84;10224932;28;20514;-65
2021/12/15 09:41:43;;;;;;;25.55;20.15;;;;;;;8.02;82.49;101817.66;10224849;28;20055;-65
2021/12/15 09:57:24;;;;;;;26.67;20.73;;;;;;;8.29;81.90;101831.47;10222867;28;20055;-66
2021/12/15 10:18:15;;;;;;;27.77;21.30;;;;;;;8.47;80.25;101819.16;10224031;28;20055;-65
2021/12/15 10:23:23;;;;;;;26.10;21.90;;;;;;;8.66;79.44;101810.31;10223065;28;20502;-65
2021/12/15 10:28:29;;;;;;;26.98;21.40;;;;;;;8.78;78.69;101817.72;10227498;28;20047;-65
2021/12/15 10:33:43;;;;;;;26.98;21.80;;;;;;;8.74;79.09;101804.66;10221372;28;20470;-66
2021/12/15 10:38:53;;;;;;;26.33;19.48;;;;;;;8.80;78.69;101815.84;10223805;28;20051;-65
2021/12/15 10:44:07;;;;;;;24.35;20.17;;;;;;;8.75;77.86;101817.88;10221142;28;20075;-65
2021/12/15 10:49:12;;;;;;;22.30;18.38;;;;;;;8.64;78.08;101809.53;10225138;28;20073;-66
2021/12/15 10:54:27;;;;;;;21.63;18.38;;;;;;;8.73;77.54;101802.94;10222120;28;20055;-66
2021/12/15 10:59:32;;;;;;;24.50;18.48;;;;;;;8.80;77.54;101797.25;10223986;28;20055;-66
2021/12/15 11:04:38;;;;;;;;;;;;;;;8.93;77.21;101794.88;10219109;28;20098;-66
2021/12/15 11:09:56;;;;;;;20.88;17.02;;;;;;;8.94;76.63;101795.72;10210146;28;19923;-66
2021/12/15 11:15:05;;;;;;;20.42;16.73;;;;;;;8.87;75.89;101794.28;10226991;28;20130;-66
2021/12/15 11:20:13;;;;;;;19.85;16.65;;;;;;;8.89;75.64;101797.72;10228226;28;20145;-67
2021/12/15 11:25:31;;;;;;;17.95;15.15;;;;;;;8.74;75.72;101794.91;10223046;28;20059;-66
2021/12/15 11:30:41;;;;;;;21.38;16.38;;;;;;;8.74;76.67;101788.75;10222116;28;20773;-66
2021/12/15 11:35:55;;;;;;;23.27;18.52;;;;;;;8.94;76.11;101787.75;10224354;28;20051;-67
2021/12/15 11:40:56;;;;;;;21.70;17.80;;;;;;;9.29;74.94;101783.34;10219485;28;20051;-66
2021/12/15 11:46:00;;;;;;;23.55;19.05;;;;;;;9.42;73.83;101774.75;10220996;28;20065;-66
2021/12/15 11:51:05;;;;;;;21.55;18.92;;;;;;;9.49;74.14;101765.53;10201913;28;20051;-67
2021/12/15 11:56:13;;;;;;;24.08;20.05;;;;;;;9.67;73.27;101775.19;10217940;28;20050;-65
2021/12/15 12:01:52;;;;;;;20.38;17.67;;;;;;;10.31;71.36;101769.13;10205600;28;20050;-65
2021/12/15 12:07:08;;;;;;;19.30;17.30;;;;;;;10.57;68.96;101765.06;10221658;28;20047;-67
2021/12/15 12:12:11;;;;;;;18.30;16.08;;;;;;;11.60;65.49;101755.50;10220702;28;20047;-65
2021/12/15 12:17:15;;;;;;;17.67;15.07;;;;;;;13.41;59.50;101753.66;10219882;28;20420;-67
2021/12/15 12:22:18;;;;;;;;;;;;;;;14.26;56.82;101744.16;10206226;28;20055;-66
2021/12/15 12:27:22;;;;;;;15.60;13.30;;;;;;;15.18;52.84;101737.34;10223281;28;20505;-66
2021/12/15 12:32:23;;;;;;;;;;;;;;;17.61;47.48;101758.06;10215430;28;20506;-67
2021/12/15 12:37:25;;;;;;;12.48;11.15;;;;;;;17.41;46.01;101747.19;10216615;28;20387;-67
2021/12/15 12:42:31;;;;;;;11.65;10.15;;;;;;;15.47;49.42;101752.19;10216909;28;20047;-66
2021/12/15 12:47:40;;;;;;;12.15;10.95;;;;;;;13.66;55.96;101751.97;10219414;28;20429;-68
2021/12/15 13:03:33;;;;;;;12.57;11.27;;;;;;;11.88;62.10;101740.47;10227012;28;20057;-67
2021/12/15 13:08:42;;;;;;;9.52;8.48;;;;;;;13.94;55.83;101742.00;10227528;28;21271;-66
2021/12/15 13:14:34;;;;;;;8.93;8.02;;;;;;;12.02;60.57;101730.69;10232060;28;20051;-66
2021/12/15 13:19:42;;;;;;;9.52;8.60;;;;;;;11.08;64.60;101732.81;10219990;28;20057;-66
2021/12/15 13:30:37;;;;;;;8.82;7.63;;;;;;;10.47;67.07;101729.25;10226563;28;20059;-66
2021/12/15 13:35:51;;;;;;;9.48;7.82;;;;;;;10.01;68.73;101729.97;10224606;28;20063;-66
2021/12/15 13:41:10;;;;;;;9.45;7.60;;;;;;;9.90;69.83;101736.72;10207333;28;20522;-65
2021/12/15 13:46:45;;;;;;;10.18;7.97;;;;;;;9.85;70.46;101729.94;10207457;28;20047;-66
2021/12/15 13:51:52;;;;;;;;;;;;;;;9.78;70.67;101728.56;10223876;28;20051;-66
2021/12/15 13:56:54;;;;;;;8.80;7.80;;;;;;;9.75;70.79;101724.25;10224168;28;20329;-66
2021/12/15 14:02:14;;;;;;;10.70;9.70;;;;;;;9.74;70.48;101714.53;10222206;28;20137;-66
2021/12/15 14:07:30;;;;;;;11.23;9.63;;;;;;;9.62;71.42;101728.50;10224834;28;20126;-67
2021/12/15 14:12:47;;;;;;;10.23;8.43;;;;;;;9.65;71.49;101723.03;10223877;28;20290;-65
2021/12/15 14:17:59;;;;;;;10.55;9.48;;;;;;;9.62;71.14;101724.03;10232268;28;20054;-66
2021/12/15 14:23:07;;;;;;;10.52;9.43;;;;;;;9.59;71.44;101734.00;10225259;28;20057;-66
2021/12/15 14:28:14;;;;;;;10.15;9.05;;;;;;;9.47;71.50;101720.41;10208116;28;20054;-65
2021/12/15 14:33:35;;;;;;;12.50;11.27;;;;;;;9.48;71.74;101718.59;10222037;28;20061;-65
2021/12/15 14:38:44;;;;;;;14.18;10.63;;;;;;;9.55;72.51;101720.84;10220101;28;20143;-65
2021/12/15 14:43:55;;;;;;;11.23;10.02;;;;;;;9.57;71.87;101725.25;10220967;28;20070;-65
2021/12/15 14:49:05;;;;;;;11.60;10.35;;;;;;;9.39;72.15;101717.28;10223816;28;20130;-69
2021/12/15 14:54:08;;;;;;;12.27;10.75;;;;;;;9.55;72.10;101739.47;10223046;28;20270;-65
2021/12/15 14:59:12;;;;;;;13.10;10.52;;;;;;;9.39;72.90;101733.22;10220831;28;20468;-65
2021/12/15 15:04:15;;;;;;;11.70;10.07;;;;;;;9.46;72.91;101742.59;10222236;28;20054;-66
2021/12/15 15:09:24;;;;;;;13.23;11.38;;;;;;;9.31;73.40;101748.72;10222383;28;20063;-66
2021/12/15 15:14:32;;;;;;;14.57;10.80;;;;;;;9.32;73.75;101745.09;10224557;28;20057;-65
2021/12/15 15:19:50;;;;;;;11.45;10.27;;;;;;;9.25;73.97;101757.00;10221067;28;20055;-65
2021/12/15 15:24:54;;;;;;;12.82;11.35;;;;;;;9.24;73.94;101749.97;10221336;28;20049;-65
2021/12/15 15:30:01;;;;;;;14.95;12.50;;;;;;;9.13;74.68;101756.69;10223802;28;20054;-65
2021/12/15 15:35:27;;;;;;;13.88;12.27;;;;;;;9.27;74.47;101766.59;10226772;28;20351;-65
2021/12/15 15:40:39;;;;;;;12.80;11.50;;;;;;;9.35;74.21;101771.53;10225067;28;20058;-65
2021/12/15 15:45:44;;;;;;;15.50;12.00;;;;;;;9.30;74.51;101765.59;10218274;28;20270;-66
2021/12/15 15:50:52;;;;;;;15.95;12.52;;;;;;;9.18;74.71;101762.63;10220627;28;20054;-65
2021/12/15 15:56:03;;;;;;;17.58;12.57;;;;;;;9.25;74.88;101775.59;10203972;28;20085;-66
2021/12/15 16:01:05;;;;;;;15.23;13.32;;;;;;;9.27;75.11;101774.56;10215849;28;20353;-65
2021/12/15 16:06:10;;;;;;;17.23;14.30;;;;;;;9.21;75.69;101772.25;10199622;28;20059;-65
2021/12/15 16:11:18;;;;;;;17.05;14.57;;;;;;;9.14;76.19;101777.00;10220055;28;20402;-64
2021/12/15 16:16:45;;;;;;;17.70;15.77;;;;;;;9.08;76.78;101784.41;10219613;28;20119;-66
2021/12/15 16:27:09;;;;;;;18.08;15.10;;;;;;;9.05;76.74;101774.78;10219815;28;20042;-65
2021/12/15 16:32:14;;;;;;;44.15;37.88;;;;;;;8.93;77.47;101768.31;10220550;28;20055;-65
2021/12/15 16:37:27;;;;;;;22.15;18.17;;;;;;;8.82;78.28;101768.81;10217592;28;20126;-66
2021/12/15 16:42:28;;;;;;;20.10;17.63;;;;;;;8.78;78.62;101785.88;10217034;28;20047;-65
2021/12/15 16:47:33;;;;;;;58.42;44.17;;;;;;;8.89;78.03;101787.09;10225859;28;20061;-65
2021/12/15 16:52:40;;;;;;;18.83;15.13;;;;;;;8.89;78.21;101788.00;10219997;28;20074;-65
2021/12/15 16:57:46;;;;;;;20.23;17.48;;;;;;;9.00;77.96;101784.78;10214466;28;20057;-66
2021/12/15 17:02:52;;;;;;;17.40;14.88;;;;;;;8.90;78.20;101792.34;10219385;28;20047;-65
2021/12/15 17:07:56;;;;;;;24.10;19.40;;;;;;;9.07;77.81;101801.28;10219981;28;20232;-65
2021/12/15 17:13:00;;;;;;;18.38;15.15;;;;;;;9.14;77.58;101808.91;10221415;28;20059;-64
2021/12/15 17:18:13;;;;;;;22.73;16.40;;;;;;;9.16;77.45;101812.31;10218088;28;20055;-66
2021/12/15 17:23:20;;;;;;;19.95;15.93;;;;;;;9.12;77.83;101815.22;10203710;28;20295;-65
2021/12/15 17:28:28;;;;;;;18.02;14.23;;;;;;;9.12;77.51;101821.38;10223090;28;20413;-65
2021/12/15 17:33:41;;;;;;;21.67;16.90;;;;;;;9.05;77.97;101819.94;10219321;28;20047;-65
2021/12/15 17:39:06;;;;;;;18.02;15.15;;;;;;;8.97;78.24;101820.31;10221348;28;20043;-65
2021/12/15 17:44:28;;;;;;;19.92;14.75;;;;;;;9.02;78.67;101820.97;10217732;28;20051;-65
2021/12/15 17:49:38;;;;;;;20.52;15.07;;;;;;;9.12;78.41;101834.66;10221440;28;20054;-66
2021/12/15 17:54:44;;;;;;;17.17;14.35;;;;;;;9.17;77.90;101827.34;10226340;28;20049;-66
2021/12/15 17:59:47;;;;;;;25.35;21.02;;;;;;;9.24;77.24;101829.69;10212429;28;20066;-67
2021/12/15 18:04:51;;;;;;;17.13;13.20;;;;;;;9.25;76.39;101831.38;10228440;28;20078;-66
2021/12/15 18:09:54;;;;;;;14.33;12.43;;;;;;;9.24;75.89;101835.84;10209350;28;20527;-66
2021/12/15 18:14:58;;;;;;;14.93;13.10;;;;;;;9.24;76.31;101835.00;10213869;28;20557;-65
2021/12/15 18:19:59;;;;;;;14.73;12.27;;;;;;;9.14;75.95;101834.59;10211519;28;20150;-65
2021/12/15 18:25:00;;;;;;;15.50;12.95;;;;;;;9.16;76.33;101841.53;10209009;28;20057;-66
2021/12/15 18:30:05;;;;;;;14.73;12.82;;;;;;;9.17;76.10;101851.25;10226430;28;20051;-66
2021/12/15 18:35:08;;;;;;;14.55;11.90;;;;;;;9.11;75.21;101848.00;10225589;28;20050;-66
2021/12/15 18:40:10;;;;;;;16.08;11.98;;;;;;;9.00;75.45;101854.72;10226830;28;20070;-66
2021/12/15 18:45:12;;;;;;;15.38;11.40;;;;;;;9.06;75.91;101858.88;10222544;28;20061;-66
2021/12/15 18:50:18;;;;;;;14.00;11.95;;;;;;;9.13;75.26;101848.81;10221823;28;20138;-65
2021/12/15 18:55:24;;;;;;;13.63;12.23;;;;;;;9.18;75.20;101852.94;10223178;28;20051;-65
2021/12/15 19:00:33;;;;;;;16.48;14.13;;;;;;;9.18;75.06;101855.59;10207612;28;20051;-65
2021/12/15 19:05:35;;;;;;;13.15;10.90;;;;;;;9.15;74.68;101870.84;10236865;28;20070;-66
2021/12/15 19:10:37;;;;;;;12.70;11.32;;;;;;;9.08;74.46;101861.44;10205510;28;20049;-65
2021/12/15 19:15:41;;;;;;;13.50;11.80;;;;;;;9.06;74.47;101856.22;10221532;28;20055;-64
2021/12/15 19:20:47;;;;;;;14.90;10.43;;;;;;;9.20;74.78;101875.00;10222597;28;20348;-65
2021/12/15 19:25:49;;;;;;;13.00;9.93;;;;;;;9.18;74.04;101863.56;10220770;28;20309;-65
2021/12/15 19:30:52;;;;;;;13.20;11.63;;;;;;;9.08;74.33;101866.75;10207288;28;20059;-65
2021/12/15 19:35:55;;;;;;;12.40;11.10;;;;;;;9.05;74.33;101878.38;10222456;28;20044;-65
2021/12/15 19:40:59;;;;;;;12.48;10.32;;;;;;;9.12;74.34;101879.81;10223073;28;20058;-66
2021/12/15 19:46:01;;;;;;;12.68;10.40;;;;;;;9.07;74.29;101881.84;10230601;28;20171;-66
2021/12/15 19:51:15;;;;;;;11.65;10.32;;;;;;;9.07;74.17;101875.66;10223246;28;20063;-66
2021/12/15 19:56:19;;;;;;;12.73;9.80;;;;;;;8.89;74.42;101866.78;10222127;28;20059;-66
2021/12/15 20:01:31;;;;;;;12.80;10.50;;;;;;;8.91;74.73;101881.72;10217471;28;20051;-65
2021/12/15 20:06:35;;;;;;;16.25;11.60;;;;;;;8.83;74.90;101875.91;10219016;28;20446;-67
2021/12/15 20:11:36;;;;;;;12.47;11.17;;;;;;;8.75;74.64;101876.28;10219524;28;20047;-66
2021/12/15 20:16:42;;;;;;;15.35;12.02;;;;;;;8.81;75.51;101881.31;10220342;28;20051;-65
2021/12/15 20:21:46;;;;;;;13.27;11.88;;;;;;;8.78;75.32;101886.75;10222163;28;20039;-66
2021/12/15 20:26:51;;;;;;;12.33;11.13;;;;;;;8.74;75.05;101889.63;10205972;28;20047;-65
2021/12/15 20:31:54;;;;;;;12.65;11.35;;;;;;;8.76;75.14;101891.25;10221328;28;20053;-67
2021/12/15 20:36:55;;;;;;;14.48;11.98;;;;;;;8.81;74.80;101907.84;10222365;28;20061;-66
2021/12/15 20:41:57;;;;;;;14.68;12.30;;;;;;;8.90;74.72;101900.38;10207375;28;21380;-68
2021/12/15 20:46:58;;;;;;;14.32;11.77;;;;;;;8.99;74.61;101902.59;10223043;28;20051;-65
2021/12/15 20:52:00;;;;;;;15.02;12.98;;;;;;;9.11;74.79;101898.50;10224850;28;20097;-68
2021/12/15 20:57:02;;;;;;;16.77;12.90;;;;;;;9.10;74.20;101900.28;10223086;28;20057;-65
2021/12/15 21:02:09;;;;;;;15.25;12.90;;;;;;;8.96;74.38;101913.34;10220885;28;20058;-66
2021/12/15 21:07:11;;;;;;;14.55;12.23;;;;;;;9.01;74.61;101914.03;10221969;28;20617;-65
2021/12/15 21:12:14;;;;;;;17.75;13.95;;;;;;;9.07;74.33;101907.53;10220269;28;20496;-66
2021/12/15 21:17:16;;;;;;;16.33;13.60;;;;;;;9.11;73.95;101904.69;10205613;28;20701;-65
2021/12/15 21:22:21;;;;;;;15.90;12.40;;;;;;;9.23;73.94;101902.34;10220282;28;20059;-67
2021/12/15 21:27:24;;;;;;;;;;;;;;;9.23;73.59;101897.88;10225117;28;20256;-67
2021/12/15 21:32:25;;;;;;;14.98;13.15;;;;;;;9.26;73.56;101896.88;10220563;28;20391;-65
2021/12/15 21:37:27;;;;;;;17.17;13.88;;;;;;;9.19;73.36;101897.19;10220135;28;20061;-66
2021/12/15 21:42:28;;;;;;;17.75;13.98;;;;;;;9.11;73.66;101896.72;10219835;28;20058;-66
2021/12/15 21:47:30;;;;;;;15.38;13.10;;;;;;;9.08;73.88;101890.66;10246516;28;20054;-69
2021/12/15 21:52:36;;;;;;;18.73;14.15;;;;;;;9.05;74.14;101889.00;10279757;28;20069;-67
2021/12/15 21:57:39;;;;;;;14.57;12.73;;;;;;;9.08;73.81;101903.94;10274152;28;20502;-65
2021/12/15 22:02:41;;;;;;;14.88;12.52;;;;;;;9.10;73.94;101897.63;10273645;28;20067;-66
2021/12/15 22:07:45;;;;;;;14.63;13.20;;;;;;;9.02;74.30;101903.31;10273292;28;20142;-66
2021/12/15 22:12:47;;;;;;;17.52;14.73;;;;;;;8.98;74.35;101893.78;10286088;28;20101;-67
2021/12/15 22:17:49;;;;;;;16.30;13.38;;;;;;;9.06;74.67;101898.72;10254788;28;20038;-66
2021/12/15 22:22:50;;;;;;;14.65;12.85;;;;;;;8.93;74.67;101889.59;10272951;28;20051;-66
2021/12/15 22:27:52;;;;;;;15.63;12.65;;;;;;;9.01;74.34;101914.88;10254632;28;20086;-66
2021/12/15 22:32:58;;;;;;;15.02;13.13;;;;;;;8.93;74.63;101916.16;10254368;28;20047;-66
2021/12/15 22:37:59;;;;;;;17.70;13.05;;;;;;;8.89;75.16;101906.59;10270463;28;20047;-66
2021/12/15 22:43:01;;;;;;;15.18;12.95;;;;;;;8.87;75.04;101909.34;10271446;28;20051;-65
2021/12/15 22:48:10;;;;;;;15.95;14.23;;;;;;;8.85;75.19;101913.88;10269716;28;20050;-66
2021/12/15 22:53:11;;;;;;;14.10;12.60;;;;;;;8.77;75.64;101921.34;10270419;28;20417;-66
2021/12/15 22:58:13;;;;;;;15.55;13.70;;;;;;;8.72;75.84;101916.25;10269808;28;20064;-66
2021/12/15 23:03:16;;;;;;;16.00;14.05;;;;;;;8.65;76.01;101909.50;10270613;28;20058;-66
2021/12/15 23:08:21;;;;;;;15.23;13.63;;;;;;;8.57;76.68;101927.56;10269390;28;22276;-67
2021/12/15 23:13:25;;;;;;;;;;;;;;;8.62;76.37;101928.22;10270450;28;20043;-66
2021/12/15 23:18:27;;;;;;;16.73;13.70;;;;;;;8.56;76.82;101915.22;10269412;28;20148;-65
2021/12/15 23:23:32;;;;;;;16.40;14.70;;;;;;;8.54;76.98;101920.63;10269615;28;20053;-65
2021/12/15 23:28:41;;;;;;;15.68;12.98;;;;;;;8.54;76.99;101925.91;10268128;28;20054;-68
2021/12/15 23:33:44;;;;;;;16.08;14.38;;;;;;;8.65;76.55;101928.09;10266937;28;20126;-67
